createdAt,value
2023-04-08T00:02:53.098Z,100925.69
2023-04-08T00:07:49.445Z,100929.91
2023-04-08T00:12:45.789Z,100930.38
2023-04-08T00:17:42.268Z,100933.25
2023-04-08T00:22:38.640Z,100931.59
2023-04-08T00:27:34.935Z,100936.94
2023-04-08T00:32:31.233Z,100934.63
2023-04-08T00:37:27.589Z,100933.78
2023-04-08T00:42:23.869Z,100934.31
2023-04-08T00:47:20.428Z,100944.56
2023-04-08T00:52:16.982Z,100941.59
2023-04-08T00:57:13.367Z,100943.97
2023-04-08T01:02:13.006Z,100954.16
2023-04-08T01:07:18.790Z,100949.03
2023-04-08T01:12:18.253Z,100942.91
2023-04-08T01:17:15.335Z,100942.63
2023-04-08T01:22:15.790Z,100944.50
2023-04-08T01:27:12.956Z,100951.53
2023-04-08T01:32:09.977Z,100953.75
2023-04-08T01:37:07.505Z,100951.06
2023-04-08T01:42:04.435Z,100953.50
2023-04-08T01:47:01.867Z,100954.25
2023-04-08T01:51:59.097Z,100957.22
2023-04-08T01:56:57.226Z,100952.38
2023-04-08T02:01:53.928Z,100955.94
2023-04-08T02:06:50.337Z,100958.28
2023-04-08T02:11:46.614Z,100953.66
2023-04-08T02:16:47.546Z,100948.25
2023-04-08T02:21:48.496Z,100954.81
2023-04-08T02:26:45.606Z,100951.53
2023-04-08T02:31:43.475Z,100953.41
2023-04-08T02:36:41.071Z,100943.69
2023-04-08T02:41:37.375Z,100949.69
2023-04-08T02:46:33.698Z,100953.59
2023-04-08T02:51:29.965Z,100958.78
2023-04-08T02:56:26.449Z,100964.66
2023-04-08T03:01:23.839Z,100976.91
2023-04-08T03:06:20.419Z,100975.06
2023-04-08T03:11:16.715Z,100972.25
2023-04-08T03:16:12.998Z,100973.28
2023-04-08T03:21:09.326Z,100967.94
2023-04-08T03:26:05.684Z,100968.84
2023-04-08T03:31:03.041Z,100974.47
2023-04-08T03:35:59.561Z,100974.47
2023-04-08T03:40:55.889Z,100975.72
2023-04-08T03:45:52.208Z,100985.47
2023-04-08T03:50:48.583Z,100977.75
2023-04-08T03:55:44.908Z,100992.72
2023-04-08T04:00:41.514Z,100988.38
2023-04-08T04:05:37.805Z,100995.59
2023-04-08T04:10:34.057Z,100994.81
2023-04-08T04:15:30.734Z,100996.38
2023-04-08T04:20:29.171Z,100993.88
2023-04-08T04:25:25.823Z,100988.47
2023-04-08T04:30:22.235Z,100991.00
2023-04-08T04:35:18.738Z,100992.19
2023-04-08T04:40:15.509Z,101000.84
2023-04-08T04:45:12.457Z,101000.84
2023-04-08T04:50:08.998Z,100995.50
2023-04-08T04:55:05.701Z,101009.41
2023-04-08T05:00:04.661Z,101008.53
2023-04-08T05:05:01.815Z,101006.63
2023-04-08T05:09:58.139Z,101007.56
2023-04-08T05:14:54.419Z,101011.16
2023-04-08T05:19:51.522Z,101017.97
2023-04-08T05:24:47.830Z,101025.16
2023-04-08T05:29:44.186Z,101028.16
2023-04-08T05:34:40.609Z,101030.19
2023-04-08T05:39:37.139Z,101043.63
2023-04-08T05:44:33.456Z,101045.22
2023-04-08T05:49:29.869Z,101049.28
2023-04-08T05:54:26.266Z,101059.97
2023-04-08T05:59:22.511Z,101062.63
2023-04-08T06:04:18.986Z,101060.84
2023-04-08T06:09:15.312Z,101057.47
2023-04-08T06:14:11.548Z,101065.53
2023-04-08T06:19:07.803Z,101077.53
2023-04-08T06:24:04.082Z,101087.16
2023-04-08T06:29:01.859Z,101090.38
2023-04-08T06:33:58.336Z,101097.28
2023-04-08T06:38:54.943Z,101100.41
2023-04-08T06:43:51.261Z,101094.28
2023-04-08T06:48:47.549Z,101107.13
2023-04-08T06:53:43.864Z,101119.84
2023-04-08T06:58:40.357Z,101127.81
2023-04-08T07:03:37.040Z,101133.56
2023-04-08T07:08:33.469Z,101144.16
2023-04-08T07:13:30.755Z,101133.47
2023-04-08T07:18:27.113Z,101141.22
2023-04-08T07:23:23.424Z,101151.66
2023-04-08T07:28:20.291Z,101145.09
2023-04-08T07:33:16.900Z,101147.31
2023-04-08T07:38:13.459Z,101158.22
2023-04-08T07:43:09.801Z,101159.44
2023-04-08T07:48:06.255Z,101149.34
2023-04-08T07:53:02.623Z,101156.56
2023-04-08T07:57:58.881Z,101152.53
2023-04-08T08:02:55.454Z,101159.31
2023-04-08T08:07:51.748Z,101171.13
2023-04-08T08:12:48.026Z,101172.84
2023-04-08T08:17:44.327Z,101181.16
2023-04-08T08:22:54.219Z,101186.91
2023-04-08T08:27:52.855Z,101184.75
2023-04-08T08:32:50.161Z,101186.53
2023-04-08T08:37:46.771Z,101179.66
2023-04-08T08:42:49.605Z,101172.56
2023-04-08T08:47:46.098Z,101178.28
2023-04-08T08:52:52.213Z,101186.13
2023-04-08T08:57:51.602Z,101187.25
2023-04-08T09:02:48.090Z,101197.00
2023-04-08T09:07:44.707Z,101190.09
2023-04-08T09:12:53.516Z,101185.28
2023-04-08T09:17:49.857Z,101184.84
2023-04-08T09:22:59.506Z,101199.03
2023-04-08T09:27:55.859Z,101207.41
2023-04-08T09:32:53.648Z,101207.00
2023-04-08T09:37:50.433Z,101208.28
2023-04-08T09:42:48.757Z,101211.22
2023-04-08T09:47:55.430Z,101218.56
2023-04-08T09:52:55.030Z,101217.19
2023-04-08T09:58:08.712Z,101219.72
2023-04-08T10:03:19.859Z,101210.88
2023-04-08T10:08:16.372Z,101210.69
2023-04-08T10:13:12.732Z,101213.28
2023-04-08T10:18:08.952Z,101222.47
2023-04-08T10:23:07.394Z,101235.13
2023-04-08T10:28:24.279Z,101235.59
2023-04-08T10:33:24.347Z,101238.25
2023-04-08T10:38:21.456Z,101237.31
2023-04-08T10:43:17.924Z,101225.09
2023-04-08T10:48:17.808Z,101226.38
2023-04-08T10:53:14.120Z,101235.59
2023-04-08T10:58:11.180Z,101239.03
2023-04-08T11:03:09.254Z,101229.84
2023-04-08T11:08:05.905Z,101227.25
2023-04-08T11:13:02.397Z,101228.75
2023-04-08T11:17:58.684Z,101228.44
2023-04-08T11:22:55.224Z,101237.66
2023-04-08T11:27:51.692Z,101241.22
2023-04-08T11:32:48.113Z,101239.75
2023-04-08T11:37:45.330Z,101238.84
2023-04-08T11:42:41.568Z,101238.97
2023-04-08T11:47:37.937Z,101243.72
2023-04-08T11:52:41.373Z,101241.97
2023-04-08T11:57:37.689Z,101247.75
2023-04-08T12:02:34.060Z,101243.03
2023-04-08T12:07:30.535Z,101243.41
2023-04-08T12:12:26.796Z,101251.72
2023-04-08T12:17:23.048Z,101242.72
2023-04-08T12:22:19.291Z,101250.00
2023-04-08T12:27:15.629Z,101247.19
2023-04-08T12:32:12.360Z,101245.06
2023-04-08T12:37:08.597Z,101256.97
2023-04-08T12:42:04.935Z,101249.34
2023-04-08T12:47:01.242Z,101252.63
2023-04-08T12:51:57.669Z,101249.66
2023-04-08T12:56:53.900Z,101254.22
2023-04-08T13:01:50.617Z,101251.44
2023-04-08T13:06:46.919Z,101255.53
2023-04-08T13:11:43.145Z,101247.84
2023-04-08T13:16:39.376Z,101251.66
2023-04-08T13:21:35.712Z,101252.31
2023-04-08T13:26:31.977Z,101255.72
2023-04-08T13:31:28.373Z,101251.00
2023-04-08T13:36:24.631Z,101256.50
2023-04-08T13:41:25.155Z,101253.78
2023-04-08T13:46:21.483Z,101262.81
2023-04-08T13:51:17.800Z,101260.56
2023-04-08T13:56:14.040Z,101250.78
2023-04-08T14:01:10.901Z,101242.16
2023-04-08T14:06:07.893Z,101234.19
2023-04-08T14:11:04.177Z,101238.47
2023-04-08T14:16:02.245Z,101238.19
2023-04-08T14:20:58.508Z,101238.44
2023-04-08T14:25:54.736Z,101239.91
2023-04-08T14:30:50.990Z,101240.78
2023-04-08T14:35:47.771Z,101240.19
2023-04-08T14:40:44.060Z,101235.13
2023-04-08T14:45:41.040Z,101239.97
2023-04-08T14:50:37.644Z,101233.44
2023-04-08T14:55:34.020Z,101240.06
2023-04-08T15:00:30.332Z,101240.84
2023-04-08T15:05:26.729Z,101239.63
2023-04-08T15:10:23.022Z,101246.78
2023-04-08T15:15:19.638Z,101235.53
2023-04-08T15:20:16.107Z,101240.72
2023-04-08T15:25:12.780Z,101233.31
2023-04-08T15:30:11.243Z,101241.63
2023-04-08T15:35:08.843Z,101241.84
2023-04-08T15:40:05.419Z,101252.47
2023-04-08T15:45:03.163Z,101251.75
2023-04-08T15:50:00.023Z,101250.97
2023-04-08T15:54:56.537Z,101254.47
2023-04-08T15:59:53.546Z,101257.22
2023-04-08T16:04:49.853Z,101258.44
2023-04-08T16:09:46.270Z,101256.47
2023-04-08T16:14:42.509Z,101259.16
2023-04-08T16:19:38.740Z,101265.53
2023-04-08T16:24:36.458Z,101267.47
2023-04-08T16:29:32.682Z,101272.97
2023-04-08T16:34:28.913Z,101270.56
2023-04-08T16:39:25.157Z,101280.28
2023-04-08T16:44:21.434Z,101278.59
2023-04-08T16:49:18.449Z,101286.28
2023-04-08T16:54:14.808Z,101286.81
2023-04-08T16:59:11.735Z,101287.66
2023-04-08T17:04:07.999Z,101287.56
2023-04-08T17:09:04.838Z,101293.81
2023-04-08T17:14:01.491Z,101297.09
2023-04-08T17:18:57.749Z,101290.16
2023-04-08T17:23:54.173Z,101297.91
2023-04-08T17:28:50.488Z,101287.03
2023-04-08T17:33:46.707Z,101305.84
2023-04-08T17:38:43.326Z,101308.25
2023-04-08T17:43:39.593Z,101306.16
2023-04-08T17:48:36.429Z,101307.28
2023-04-08T17:53:33.450Z,101305.31
2023-04-08T17:58:29.726Z,101313.19
2023-04-08T18:03:26.138Z,101312.94
2023-04-08T18:08:22.625Z,101312.84
2023-04-08T18:13:18.885Z,101311.66
2023-04-08T18:18:19.364Z,101324.84
2023-04-08T18:23:15.654Z,101323.44
2023-04-08T18:28:11.879Z,101335.44
2023-04-08T18:33:08.522Z,101337.31
2023-04-08T18:38:04.806Z,101342.09
2023-04-08T18:43:04.082Z,101349.44
2023-04-08T18:48:00.511Z,101354.94
2023-04-08T18:52:56.864Z,101363.81
2023-04-08T18:57:53.093Z,101367.41
2023-04-08T19:02:49.467Z,101375.47
2023-04-08T19:07:45.754Z,101371.69
2023-04-08T19:12:42.020Z,101387.88
2023-04-08T19:17:38.263Z,101384.78
2023-04-08T19:22:34.535Z,101387.56
2023-04-08T19:27:31.775Z,101396.84
2023-04-08T19:32:28.671Z,101390.91
2023-04-08T19:37:25.843Z,101393.78
2023-04-08T19:42:22.353Z,101390.91
2023-04-08T19:47:18.637Z,101389.59
2023-04-08T19:52:14.901Z,101396.53
2023-04-08T19:57:12.213Z,101388.66
2023-04-08T20:02:08.720Z,101384.53
2023-04-08T20:07:04.995Z,101394.41
2023-04-08T20:12:04.643Z,101393.44
2023-04-08T20:17:01.144Z,101391.47
2023-04-08T20:21:57.719Z,101390.69
2023-04-08T20:26:54.330Z,101398.06
2023-04-08T20:31:51.831Z,101398.16
2023-04-08T20:36:48.213Z,101407.28
2023-04-08T20:41:44.567Z,101401.13
2023-04-08T20:46:41.235Z,101406.19
2023-04-08T20:51:37.795Z,101397.50
2023-04-08T20:56:34.030Z,101402.91
2023-04-08T21:01:30.721Z,101405.38
2023-04-08T21:06:27.669Z,101408.56
2023-04-08T21:11:24.020Z,101408.75
2023-04-08T21:16:20.483Z,101416.00
2023-04-08T21:21:16.776Z,101407.84
2023-04-08T21:26:13.551Z,101413.09
2023-04-08T21:31:12.342Z,101417.00
2023-04-08T21:36:08.712Z,101416.19
2023-04-08T21:41:05.008Z,101406.72
2023-04-08T21:46:01.305Z,101416.47
2023-04-08T21:50:57.603Z,101410.47
2023-04-08T21:55:53.872Z,101409.38
2023-04-08T22:00:50.648Z,101404.72
2023-04-08T22:05:46.978Z,101408.53
2023-04-08T22:10:43.225Z,101405.03
2023-04-08T22:15:39.546Z,101408.59
2023-04-08T22:20:36.542Z,101410.03
2023-04-08T22:25:32.838Z,101403.72
2023-04-08T22:30:30.069Z,101397.25
2023-04-08T22:35:26.373Z,101404.28
2023-04-08T22:40:22.757Z,101404.84
2023-04-08T22:45:19.061Z,101398.22
2023-04-08T22:50:15.322Z,101397.28
2023-04-08T22:55:11.638Z,101399.09
2023-04-08T23:00:09.250Z,101393.59
2023-04-08T23:05:06.057Z,101388.13
2023-04-08T23:10:02.335Z,101398.06
2023-04-08T23:14:58.595Z,101393.81
2023-04-08T23:19:54.891Z,101394.03
2023-04-08T23:24:51.110Z,101402.41
2023-04-08T23:29:47.359Z,101397.25
2023-04-08T23:34:43.676Z,101407.03
2023-04-08T23:39:39.962Z,101407.63
2023-04-08T23:44:36.203Z,101403.28
2023-04-08T23:49:32.448Z,101404.25
2023-04-08T23:54:33.737Z,101408.88
2023-04-08T23:59:30.127Z,101414.06
